createdAt,value
2018-05-10T00:00:16.336Z,13.30
2018-05-10T00:02:43.851Z,13.10
2018-05-10T00:05:12.173Z,13.10
2018-05-10T00:07:39.737Z,13.10
2018-05-10T00:10:07.275Z,13.10
2018-05-10T00:12:34.849Z,13.00
2018-05-10T00:15:02.385Z,13.10
2018-05-10T00:17:31.615Z,13.20
2018-05-10T00:19:59.132Z,13.10
2018-05-10T00:22:26.667Z,13.10
2018-05-10T00:24:54.188Z,13.20
2018-05-10T00:27:21.724Z,13.10
2018-05-10T00:29:50.044Z,13.00
2018-05-10T00:32:17.599Z,13.00
2018-05-10T00:34:45.139Z,13.00
2018-05-10T00:37:13.428Z,12.90
2018-05-10T00:39:41.008Z,12.90
2018-05-10T00:42:08.573Z,12.70
2018-05-10T00:44:36.089Z,12.50
2018-05-10T00:47:03.620Z,12.30
2018-05-10T00:49:31.137Z,12.30
2018-05-10T00:51:59.445Z,12.10
2018-05-10T00:54:38.947Z,12.10
2018-05-10T00:57:06.497Z,12.10
2018-05-10T00:59:34.836Z,12.30
2018-05-10T01:02:02.394Z,12.20
2018-05-10T01:04:29.928Z,12.30
2018-05-10T01:06:58.204Z,12.40
2018-05-10T01:09:26.500Z,12.40
2018-05-10T01:11:54.020Z,12.40
2018-05-10T01:14:21.548Z,12.40
2018-05-10T01:16:49.110Z,12.40
2018-05-10T01:19:16.649Z,12.40
2018-05-10T01:21:44.932Z,12.30
2018-05-10T01:24:13.232Z,12.40
2018-05-10T01:26:40.748Z,12.30
2018-05-10T01:29:08.283Z,12.40
2018-05-10T01:31:35.799Z,12.40
2018-05-10T01:34:03.332Z,12.40
2018-05-10T01:36:30.844Z,12.30
2018-05-10T01:38:58.378Z,12.10
2018-05-10T01:41:26.681Z,11.70
2018-05-10T01:43:54.217Z,11.70
2018-05-10T01:46:22.500Z,11.60
2018-05-10T01:48:50.811Z,11.60
2018-05-10T01:51:18.319Z,11.60
2018-05-10T01:53:47.335Z,11.80
2018-05-10T01:56:15.637Z,11.80
2018-05-10T01:58:43.213Z,11.80
2018-05-10T02:01:10.743Z,11.80
2018-05-10T02:03:39.019Z,11.60
2018-05-10T02:06:07.316Z,11.50
2018-05-10T02:08:34.833Z,11.50
2018-05-10T02:11:02.370Z,11.40
2018-05-10T02:13:29.885Z,11.40
2018-05-10T02:15:58.179Z,11.50
2018-05-10T02:18:25.695Z,11.50
2018-05-10T02:20:53.320Z,11.50
2018-05-10T02:23:20.891Z,11.60
2018-05-10T02:25:48.457Z,11.70
2018-05-10T02:28:15.974Z,11.70
2018-05-10T02:30:44.301Z,11.30
2018-05-10T02:33:11.812Z,11.30
2018-05-10T02:35:39.369Z,11.20
2018-05-10T02:38:06.885Z,11.10
2018-05-10T02:40:34.402Z,11.00
2018-05-10T02:43:02.720Z,10.90
2018-05-10T02:45:30.236Z,10.80
2018-05-10T02:47:57.763Z,10.90
2018-05-10T02:50:25.279Z,10.80
2018-05-10T02:52:53.583Z,11.00
2018-05-10T02:55:21.100Z,10.90
2018-05-10T02:57:49.435Z,11.10
2018-05-10T03:00:16.948Z,11.10
2018-05-10T03:02:44.486Z,11.10
2018-05-10T03:05:12.009Z,11.20
2018-05-10T03:07:39.544Z,11.10
2018-05-10T03:10:07.824Z,10.70
2018-05-10T03:12:36.124Z,10.60
2018-05-10T03:15:03.704Z,10.60
2018-05-10T03:17:31.238Z,10.50
2018-05-10T03:19:58.779Z,10.50
2018-05-10T03:22:27.076Z,10.60
2018-05-10T03:24:55.351Z,10.70
2018-05-10T03:27:22.904Z,10.60
2018-05-10T03:29:51.925Z,10.70
2018-05-10T03:32:20.213Z,10.80
2018-05-10T03:34:47.762Z,10.80
2018-05-10T03:37:16.041Z,10.90
2018-05-10T03:39:44.336Z,10.90
2018-05-10T03:42:12.626Z,11.00
2018-05-10T03:44:40.155Z,11.00
2018-05-10T03:47:07.678Z,11.00
2018-05-10T03:49:35.223Z,11.10
2018-05-10T03:52:02.740Z,11.10
2018-05-10T03:54:30.280Z,11.10
2018-05-10T03:56:57.806Z,11.20
2018-05-10T03:59:25.344Z,11.20
2018-05-10T04:01:53.619Z,11.00
2018-05-10T04:04:33.893Z,11.00
2018-05-10T04:07:13.358Z,10.90
2018-05-10T04:09:52.965Z,11.00
2018-05-10T04:12:21.248Z,11.30
2018-05-10T04:14:49.625Z,11.30
2018-05-10T04:17:17.912Z,11.40
2018-05-10T04:19:46.212Z,11.40
2018-05-10T04:22:13.729Z,11.40
2018-05-10T04:24:41.265Z,11.30
2018-05-10T04:27:09.833Z,11.30
2018-05-10T04:29:37.372Z,11.30
2018-05-10T04:32:06.304Z,11.40
2018-05-10T04:34:33.839Z,11.40
2018-05-10T04:37:01.361Z,11.30
2018-05-10T04:39:28.897Z,11.20
2018-05-10T04:41:56.412Z,11.10
2018-05-10T04:44:24.729Z,11.20
2018-05-10T04:46:52.256Z,11.20
2018-05-10T04:49:19.773Z,11.30
2018-05-10T04:51:47.305Z,11.40
2018-05-10T04:54:14.829Z,11.40
2018-05-10T04:56:43.132Z,11.70
2018-05-10T04:59:11.412Z,11.90
2018-05-10T05:01:38.953Z,11.90
2018-05-10T05:04:06.484Z,12.10
2018-05-10T05:06:34.788Z,12.10
2018-05-10T05:09:03.172Z,12.10
2018-05-10T05:11:30.636Z,12.10
2018-05-10T05:13:58.957Z,15.60
2018-05-10T05:16:26.497Z,15.60
2018-05-10T05:18:54.390Z,17.70
2018-05-10T05:21:22.069Z,19.50
2018-05-10T05:23:49.707Z,21.10
2018-05-10T05:26:18.277Z,23.40
2018-05-10T05:28:45.798Z,23.40
2018-05-10T05:31:14.104Z,24.70
2018-05-10T05:33:41.632Z,24.60
2018-05-10T05:36:09.170Z,25.20
2018-05-10T05:38:36.684Z,25.20
2018-05-10T05:41:04.252Z,25.10
2018-05-10T05:43:31.790Z,25.40
2018-05-10T05:45:59.295Z,25.10
2018-05-10T05:48:26.832Z,24.70
2018-05-10T05:50:55.116Z,22.90
2018-05-10T05:53:22.653Z,22.80
2018-05-10T05:55:50.165Z,23.30
2018-05-10T05:58:21.621Z,24.30
2018-05-10T06:00:49.174Z,25.00
2018-05-10T06:03:16.700Z,25.40
2018-05-10T06:05:44.990Z,26.40
2018-05-10T06:08:13.336Z,27.00
2018-05-10T06:10:40.864Z,26.90
2018-05-10T06:13:08.397Z,27.60
2018-05-10T06:15:35.936Z,28.10
2018-05-10T06:18:03.481Z,28.50
2018-05-10T06:20:30.997Z,28.50
2018-05-10T06:22:58.536Z,28.90
2018-05-10T06:25:26.820Z,30.20
2018-05-10T06:27:54.372Z,30.10
2018-05-10T06:30:22.657Z,30.70
2018-05-10T06:32:50.969Z,30.60
2018-05-10T06:35:18.493Z,30.60
2018-05-10T06:37:46.773Z,30.10
2018-05-10T06:40:15.068Z,29.90
2018-05-10T06:42:42.584Z,29.90
2018-05-10T06:45:10.134Z,29.90
2018-05-10T06:47:37.653Z,29.80
2018-05-10T06:50:05.962Z,29.50
2018-05-10T06:52:34.230Z,29.50
2018-05-10T06:55:01.763Z,29.20
2018-05-10T06:57:30.047Z,29.60
2018-05-10T06:59:58.347Z,29.90
2018-05-10T07:02:25.884Z,29.90
2018-05-10T07:04:54.197Z,29.80
2018-05-10T07:07:21.729Z,29.70
2018-05-10T07:09:50.178Z,29.80
2018-05-10T07:12:17.572Z,29.80
2018-05-10T07:14:45.884Z,30.00
2018-05-10T07:17:13.401Z,30.00
2018-05-10T07:19:41.709Z,29.50
2018-05-10T07:22:09.228Z,29.50
2018-05-10T07:24:36.767Z,29.50
2018-05-10T07:27:04.290Z,29.70
2018-05-10T07:29:31.845Z,29.90
2018-05-10T07:32:00.157Z,30.10
2018-05-10T07:34:27.684Z,30.10
2018-05-10T07:36:55.992Z,30.20
2018-05-10T07:39:23.552Z,30.20
2018-05-10T07:41:51.089Z,30.20
2018-05-10T07:44:18.609Z,30.40
2018-05-10T07:46:46.152Z,30.20
2018-05-10T07:49:13.677Z,30.20
2018-05-10T07:51:41.977Z,30.00
2018-05-10T07:54:09.497Z,30.00
2018-05-10T07:56:37.042Z,30.10
2018-05-10T07:59:04.560Z,30.20
2018-05-10T08:01:32.103Z,30.20
2018-05-10T08:03:59.624Z,29.80
2018-05-10T08:06:27.162Z,29.30
2018-05-10T08:08:54.680Z,29.20
2018-05-10T08:11:22.985Z,29.50
2018-05-10T08:13:50.506Z,29.40
2018-05-10T08:16:18.053Z,29.90
2018-05-10T08:18:45.578Z,30.20
2018-05-10T08:21:13.953Z,30.50
2018-05-10T08:23:47.544Z,30.80
2018-05-10T08:26:15.834Z,30.70
2018-05-10T08:28:43.376Z,30.70
2018-05-10T08:31:10.894Z,30.70
2018-05-10T08:33:38.432Z,30.90
2018-05-10T08:36:05.947Z,30.70
2018-05-10T08:38:34.992Z,30.60
2018-05-10T08:41:02.514Z,30.60
2018-05-10T08:43:30.053Z,30.40
2018-05-10T08:45:57.592Z,30.30
2018-05-10T08:48:25.133Z,30.40
2018-05-10T08:50:52.648Z,30.40
2018-05-10T08:53:20.190Z,30.40
2018-05-10T08:55:47.715Z,30.70
2018-05-10T08:58:16.027Z,30.40
2018-05-10T09:00:43.549Z,30.40
2018-05-10T09:03:11.848Z,29.90
2018-05-10T09:05:39.369Z,29.90
2018-05-10T09:08:06.909Z,29.70
2018-05-10T09:10:34.425Z,29.30
2018-05-10T09:13:02.735Z,28.90
2018-05-10T09:15:30.244Z,28.90
2018-05-10T09:17:57.766Z,29.00
2018-05-10T09:20:25.305Z,28.80
2018-05-10T09:22:52.825Z,29.00
2018-05-10T09:25:20.360Z,29.50
2018-05-10T09:27:47.879Z,30.00
2018-05-10T09:30:16.181Z,30.80
2018-05-10T09:32:43.696Z,30.70
2018-05-10T09:35:11.301Z,30.60
2018-05-10T09:37:38.812Z,30.30
2018-05-10T09:40:06.358Z,29.90
2018-05-10T09:42:33.881Z,29.80
2018-05-10T09:45:01.416Z,29.70
2018-05-10T09:47:29.700Z,29.50
2018-05-10T09:49:58.000Z,29.80
2018-05-10T09:52:25.520Z,29.80
2018-05-10T09:54:53.060Z,30.10
2018-05-10T09:57:20.593Z,30.10
2018-05-10T09:59:48.149Z,30.20
2018-05-10T10:02:15.668Z,30.00
2018-05-10T10:04:43.280Z,30.40
2018-05-10T10:07:10.801Z,30.60
2018-05-10T10:09:38.335Z,30.70
2018-05-10T10:12:05.852Z,30.80
2018-05-10T10:14:33.391Z,30.10
2018-05-10T10:17:01.672Z,29.10
2018-05-10T10:19:29.194Z,29.10
2018-05-10T10:21:56.733Z,28.70
2018-05-10T10:24:24.257Z,28.40
2018-05-10T10:26:51.794Z,27.70
2018-05-10T10:29:19.305Z,26.70
2018-05-10T10:31:47.609Z,25.70
2018-05-10T10:34:15.126Z,25.70
2018-05-10T10:36:42.659Z,25.60
2018-05-10T10:39:10.172Z,26.40
2018-05-10T10:41:37.716Z,27.80
2018-05-10T10:44:05.996Z,29.40
2018-05-10T10:46:34.300Z,29.20
2018-05-10T10:49:01.831Z,29.10
2018-05-10T10:51:29.368Z,28.60
2018-05-10T10:53:56.907Z,28.10
2018-05-10T10:56:24.442Z,27.60
2018-05-10T10:58:51.964Z,27.00
2018-05-10T11:01:19.504Z,26.40
2018-05-10T11:03:47.016Z,26.10
2018-05-10T11:06:15.316Z,24.80
2018-05-10T11:08:42.837Z,24.70
2018-05-10T11:11:10.390Z,24.20
2018-05-10T11:13:37.912Z,24.00
2018-05-10T11:16:05.438Z,24.00
2018-05-10T11:18:33.746Z,24.20
2018-05-10T11:21:01.328Z,24.10
2018-05-10T11:23:28.870Z,24.30
2018-05-10T11:25:56.398Z,24.40
2018-05-10T11:28:23.931Z,25.00
2018-05-10T11:30:52.748Z,25.80
2018-05-10T11:33:20.331Z,26.50
2018-05-10T11:35:47.931Z,27.30
2018-05-10T11:38:15.470Z,27.50
2018-05-10T11:40:43.752Z,27.70
2018-05-10T11:43:11.288Z,27.70
2018-05-10T11:45:38.812Z,28.20
2018-05-10T11:48:06.373Z,28.50
2018-05-10T11:50:33.893Z,28.50
2018-05-10T11:53:02.281Z,28.60
2018-05-10T11:55:29.736Z,28.60
2018-05-10T11:57:58.041Z,28.80
2018-05-10T12:00:26.254Z,28.80
2018-05-10T12:02:53.813Z,28.10
2018-05-10T12:05:21.330Z,27.00
2018-05-10T12:07:50.036Z,25.90
2018-05-10T12:10:17.572Z,25.90
2018-05-10T12:12:45.852Z,24.90
2018-05-10T12:15:14.160Z,24.80
2018-05-10T12:17:41.678Z,24.80
2018-05-10T12:20:09.221Z,24.80
2018-05-10T12:22:36.741Z,24.80
2018-05-10T12:25:04.290Z,24.70
2018-05-10T12:27:31.813Z,24.40
2018-05-10T12:29:59.356Z,24.00
2018-05-10T12:32:26.910Z,23.50
2018-05-10T12:34:54.448Z,22.90
2018-05-10T12:37:22.015Z,22.70
2018-05-10T12:39:49.738Z,22.30
2018-05-10T12:42:17.409Z,22.20
2018-05-10T12:44:44.949Z,22.00
2018-05-10T12:47:12.476Z,21.80
2018-05-10T12:49:40.025Z,21.60
2018-05-10T12:52:07.542Z,21.40
2018-05-10T12:54:35.067Z,21.40
2018-05-10T12:57:02.608Z,21.40
2018-05-10T12:59:30.897Z,21.00
2018-05-10T13:01:58.434Z,21.00
2018-05-10T13:04:26.726Z,20.60
2018-05-10T13:06:55.103Z,20.50
2018-05-10T13:09:22.580Z,20.50
2018-05-10T13:11:50.130Z,20.40
2018-05-10T13:14:18.420Z,19.70
2018-05-10T13:16:45.965Z,19.70
2018-05-10T13:19:14.252Z,19.00
2018-05-10T13:21:42.592Z,18.80
2018-05-10T13:24:10.105Z,18.80
2018-05-10T13:26:37.656Z,18.60
2018-05-10T13:29:05.948Z,18.20
2018-05-10T13:31:33.541Z,18.20
2018-05-10T13:34:01.071Z,18.10
2018-05-10T13:36:29.378Z,18.10
2018-05-10T13:38:57.676Z,18.00
2018-05-10T13:41:26.163Z,18.00
2018-05-10T13:43:54.241Z,18.00
2018-05-10T13:46:22.625Z,17.90
2018-05-10T13:48:50.169Z,17.80
2018-05-10T13:51:17.688Z,17.70
2018-05-10T13:53:45.992Z,17.60
2018-05-10T13:56:13.517Z,17.60
2018-05-10T13:58:41.062Z,17.60
2018-05-10T14:01:08.589Z,17.80
2018-05-10T14:03:36.135Z,17.90
2018-05-10T14:06:03.656Z,18.00
2018-05-10T14:08:31.192Z,18.10
2018-05-10T14:10:58.720Z,18.30
2018-05-10T14:13:26.270Z,18.40
2018-05-10T14:15:54.560Z,18.70
2018-05-10T14:18:23.825Z,19.00
2018-05-10T14:20:51.349Z,19.00
2018-05-10T14:23:18.914Z,19.20
2018-05-10T14:25:46.436Z,19.40
2018-05-10T14:28:14.754Z,19.70
2018-05-10T14:30:42.280Z,19.70
2018-05-10T14:33:10.628Z,20.30
2018-05-10T14:35:38.144Z,20.30
2018-05-10T14:38:05.671Z,20.90
2018-05-10T14:40:33.981Z,21.10
2018-05-10T14:43:01.502Z,21.10
2018-05-10T14:45:29.045Z,20.90
2018-05-10T14:47:56.557Z,20.80
2018-05-10T14:50:24.862Z,20.90
2018-05-10T14:52:52.385Z,20.90
2018-05-10T14:55:20.703Z,20.90
2018-05-10T14:57:48.216Z,20.90
2018-05-10T15:00:15.755Z,20.90
2018-05-10T15:02:43.271Z,20.70
2018-05-10T15:05:10.804Z,20.50
2018-05-10T15:07:38.324Z,20.40
2018-05-10T15:10:05.865Z,20.60
2018-05-10T15:12:33.381Z,20.60
2018-05-10T15:15:00.928Z,20.60
2018-05-10T15:17:28.454Z,20.70
2018-05-10T15:19:55.976Z,20.70
2018-05-10T15:22:24.280Z,20.30
2018-05-10T15:24:51.801Z,20.30
2018-05-10T15:27:19.337Z,20.20
2018-05-10T15:29:46.851Z,20.20
2018-05-10T15:32:15.159Z,20.20
2018-05-10T15:34:42.682Z,20.20
2018-05-10T15:37:10.220Z,20.20
2018-05-10T15:39:37.737Z,20.20
2018-05-10T15:42:05.281Z,20.10
2018-05-10T15:44:33.577Z,19.90
2018-05-10T15:47:01.121Z,19.90
2018-05-10T15:49:29.478Z,19.70
2018-05-10T15:51:56.974Z,19.70
2018-05-10T15:54:25.293Z,20.00
2018-05-10T15:56:52.821Z,19.90
2018-05-10T15:59:21.165Z,20.30
2018-05-10T16:01:48.682Z,20.30
2018-05-10T16:04:16.207Z,20.40
2018-05-10T16:06:43.785Z,20.40
2018-05-10T16:09:11.301Z,20.30
2018-05-10T16:11:38.830Z,20.00
2018-05-10T16:14:06.374Z,19.60
2018-05-10T16:16:34.666Z,19.50
2018-05-10T16:19:02.213Z,19.40
2018-05-10T16:21:30.500Z,19.70
2018-05-10T16:23:58.817Z,19.70
2018-05-10T16:26:26.413Z,19.70
2018-05-10T16:28:53.927Z,19.70
2018-05-10T16:31:21.453Z,19.40
2018-05-10T16:33:49.761Z,19.10
2018-05-10T16:36:17.285Z,19.00
2018-05-10T16:38:44.828Z,19.10
2018-05-10T16:41:12.353Z,19.10
2018-05-10T16:43:39.892Z,19.00
2018-05-10T16:46:08.181Z,18.90
2018-05-10T16:48:35.726Z,18.80
2018-05-10T16:51:04.041Z,18.70
2018-05-10T16:53:31.567Z,18.70
2018-05-10T16:55:59.882Z,18.30
2018-05-10T16:58:27.418Z,18.20
2018-05-10T17:00:55.725Z,18.00
2018-05-10T17:03:23.244Z,18.00
2018-05-10T17:05:50.789Z,17.80
2018-05-10T17:08:18.309Z,17.80
2018-05-10T17:10:45.853Z,17.80
2018-05-10T17:13:13.388Z,17.60
2018-05-10T17:15:40.923Z,17.50
2018-05-10T17:18:08.445Z,17.30
2018-05-10T17:20:35.986Z,17.10
2018-05-10T17:23:04.288Z,17.00
2018-05-10T17:25:31.857Z,17.00
2018-05-10T17:27:59.376Z,16.90
2018-05-10T17:30:26.913Z,16.90
2018-05-10T17:32:54.437Z,16.90
2018-05-10T17:35:21.981Z,16.90
2018-05-10T17:37:50.264Z,16.80
2018-05-10T17:40:18.576Z,16.80
2018-05-10T17:42:46.100Z,16.80
2018-05-10T17:45:14.383Z,16.70
2018-05-10T17:47:42.692Z,16.70
2018-05-10T17:50:10.214Z,16.70
2018-05-10T17:52:37.761Z,16.70
2018-05-10T17:55:06.047Z,16.60
2018-05-10T17:57:33.604Z,16.60
2018-05-10T18:00:01.119Z,16.60
2018-05-10T18:02:28.688Z,16.50
2018-05-10T18:04:56.205Z,16.40
2018-05-10T18:07:23.838Z,16.30
2018-05-10T18:09:51.282Z,16.20
2018-05-10T18:12:18.826Z,16.10
2018-05-10T18:14:46.345Z,15.90
2018-05-10T18:17:13.882Z,15.80
2018-05-10T18:19:41.395Z,15.60
2018-05-10T18:22:09.692Z,15.50
2018-05-10T18:24:37.216Z,15.50
2018-05-10T18:27:04.756Z,15.60
2018-05-10T18:29:32.268Z,15.60
2018-05-10T18:32:00.580Z,15.40
2018-05-10T18:34:28.136Z,15.40
2018-05-10T18:36:55.658Z,15.40
2018-05-10T18:39:23.956Z,15.30
2018-05-10T18:41:52.244Z,15.30
2018-05-10T18:44:19.784Z,15.20
2018-05-10T18:46:48.070Z,15.20
2018-05-10T18:49:16.383Z,15.20
2018-05-10T18:51:43.949Z,15.20
2018-05-10T18:54:11.489Z,15.10
2018-05-10T18:56:39.009Z,15.10
2018-05-10T18:59:06.544Z,15.00
2018-05-10T19:01:34.056Z,14.90
2018-05-10T19:04:02.356Z,14.90
2018-05-10T19:06:29.883Z,14.90
2018-05-10T19:08:57.424Z,14.90
2018-05-10T19:11:24.943Z,14.80
2018-05-10T19:13:53.249Z,14.90
2018-05-10T19:16:20.778Z,14.80
2018-05-10T19:18:49.620Z,14.90
2018-05-10T19:21:17.141Z,14.90
2018-05-10T19:23:45.259Z,14.90
2018-05-10T19:26:12.777Z,14.90
2018-05-10T19:28:41.080Z,14.90
2018-05-10T19:31:08.602Z,14.90
2018-05-10T19:33:36.894Z,14.90
2018-05-10T19:36:05.208Z,14.90
2018-05-10T19:38:32.730Z,14.90
2018-05-10T19:41:01.028Z,14.80
2018-05-10T19:43:28.609Z,14.80
2018-05-10T19:45:56.171Z,14.80
2018-05-10T19:48:23.689Z,14.70
2018-05-10T19:50:51.228Z,14.70
2018-05-10T19:53:18.759Z,14.60
2018-05-10T19:55:46.303Z,14.70
2018-05-10T19:58:13.828Z,14.60
2018-05-10T20:00:41.364Z,14.60
2018-05-10T20:03:08.882Z,14.60
2018-05-10T20:05:36.997Z,14.60
2018-05-10T20:08:04.522Z,14.70
2018-05-10T20:10:32.064Z,14.70
2018-05-10T20:13:00.344Z,14.80
2018-05-10T20:15:28.653Z,14.80
2018-05-10T20:17:56.173Z,14.70
2018-05-10T20:20:23.714Z,14.70
2018-05-10T20:22:51.229Z,14.70
2018-05-10T20:25:19.601Z,14.50
2018-05-10T20:27:47.924Z,14.50
2018-05-10T20:30:15.466Z,14.40
2018-05-10T20:32:42.998Z,14.40
2018-05-10T20:35:11.306Z,14.30
2018-05-10T20:37:38.827Z,14.30
2018-05-10T20:40:06.356Z,14.40
2018-05-10T20:42:33.906Z,14.30
2018-05-10T20:45:01.468Z,14.30
2018-05-10T20:47:29.004Z,14.30
2018-05-10T20:49:57.287Z,14.30
2018-05-10T20:52:25.588Z,14.30
2018-05-10T20:54:53.113Z,14.30
2018-05-10T20:57:21.416Z,14.30
2018-05-10T20:59:48.946Z,14.30
2018-05-10T21:02:16.482Z,14.20
2018-05-10T21:04:44.005Z,14.20
2018-05-10T21:07:11.543Z,14.20
2018-05-10T21:09:39.837Z,14.20
2018-05-10T21:12:08.252Z,14.20
2018-05-10T21:14:35.773Z,14.20
2018-05-10T21:17:04.093Z,14.30
2018-05-10T21:19:31.617Z,14.20
2018-05-10T21:21:59.906Z,14.30
2018-05-10T21:24:27.458Z,14.30
2018-05-10T21:26:55.745Z,14.30
2018-05-10T21:29:24.052Z,14.30
2018-05-10T21:31:51.581Z,14.30
2018-05-10T21:34:19.892Z,14.30
2018-05-10T21:36:47.421Z,14.30
2018-05-10T21:39:15.735Z,14.40
2018-05-10T21:41:43.261Z,14.30
2018-05-10T21:44:11.568Z,14.30
2018-05-10T21:46:39.099Z,14.20
2018-05-10T21:49:19.485Z,14.20
2018-05-10T21:51:47.769Z,14.20
2018-05-10T21:54:15.319Z,14.20
2018-05-10T21:56:43.607Z,14.10
2018-05-10T21:59:11.916Z,14.00
2018-05-10T22:01:39.436Z,14.00
2018-05-10T22:04:07.746Z,14.00
2018-05-10T22:06:35.790Z,13.90
2018-05-10T22:09:04.120Z,13.90
2018-05-10T22:11:31.643Z,13.90
2018-05-10T22:13:59.957Z,13.80
2018-05-10T22:16:27.485Z,13.80
2018-05-10T22:18:55.774Z,13.80
2018-05-10T22:21:23.323Z,13.70
2018-05-10T22:23:51.613Z,13.70
2018-05-10T22:26:19.160Z,13.70
2018-05-10T22:28:47.453Z,13.70
2018-05-10T22:31:15.003Z,13.70
2018-05-10T22:33:43.298Z,13.60
2018-05-10T22:36:10.844Z,13.70
2018-05-10T22:38:39.133Z,13.60
2018-05-10T22:41:07.448Z,13.60
2018-05-10T22:43:34.972Z,13.60
2018-05-10T22:46:03.284Z,13.60
2018-05-10T22:48:30.845Z,13.60
2018-05-10T22:50:58.389Z,13.60
2018-05-10T22:53:25.916Z,13.60
2018-05-10T22:55:53.463Z,13.50
2018-05-10T22:58:21.100Z,13.50
2018-05-10T23:00:48.638Z,13.40
2018-05-10T23:03:16.173Z,13.40
2018-05-10T23:05:43.729Z,13.40
2018-05-10T23:08:11.253Z,13.40
2018-05-10T23:10:38.781Z,13.40
2018-05-10T23:13:07.732Z,13.30
2018-05-10T23:15:35.259Z,13.30
2018-05-10T23:18:02.805Z,13.30
2018-05-10T23:20:30.329Z,13.40
2018-05-10T23:22:57.876Z,13.40
2018-05-10T23:25:25.396Z,13.40
2018-05-10T23:27:52.946Z,13.40
2018-05-10T23:30:21.233Z,13.30
2018-05-10T23:32:48.782Z,13.30
2018-05-10T23:35:17.073Z,13.30
2018-05-10T23:37:45.385Z,13.30
2018-05-10T23:40:12.945Z,13.20
2018-05-10T23:42:40.512Z,13.30
2018-05-10T23:45:08.032Z,13.20
2018-05-10T23:47:36.345Z,13.10
2018-05-10T23:50:03.873Z,13.10
2018-05-10T23:52:32.178Z,13.00
2018-05-10T23:54:59.709Z,13.00
2018-05-10T23:57:27.252Z,13.00
2018-05-10T23:59:54.779Z,12.90
